createdAt,value
2023-10-23T00:00:06.231Z,97677.00
2023-10-23T00:00:16.255Z,97677.00
2023-10-23T00:00:26.315Z,97677.00
2023-10-23T00:00:36.479Z,97679.00
2023-10-23T00:00:46.489Z,97676.00
2023-10-23T00:00:56.571Z,97676.00
2023-10-23T00:01:06.548Z,97679.00
2023-10-23T00:01:16.526Z,97676.00
2023-10-23T00:01:26.627Z,97676.00
2023-10-23T00:01:36.665Z,97677.00
2023-10-23T00:01:46.706Z,97674.00
2023-10-23T00:01:56.717Z,97676.00
2023-10-23T00:02:06.727Z,97674.00
2023-10-23T00:02:16.714Z,97674.00
2023-10-23T00:02:26.734Z,97676.00
2023-10-23T00:02:36.757Z,97674.00
2023-10-23T00:02:46.774Z,97674.00
2023-10-23T00:02:56.829Z,97674.00
2023-10-23T00:03:06.937Z,97674.00
2023-10-23T00:03:17.072Z,97674.00
2023-10-23T00:03:27.313Z,97672.00
2023-10-23T00:03:37.444Z,97672.00
2023-10-23T00:03:47.630Z,97672.00
2023-10-23T00:03:57.832Z,97674.00
2023-10-23T00:04:07.968Z,97672.00
2023-10-23T00:04:18.022Z,97674.00
2023-10-23T00:04:28.212Z,97672.00
2023-10-23T00:04:38.565Z,97674.00
2023-10-23T00:04:48.606Z,97672.00
2023-10-23T00:04:58.764Z,97674.00
2023-10-23T00:05:08.634Z,97672.00
2023-10-23T00:05:18.690Z,97672.00
2023-10-23T00:05:28.740Z,97672.00
2023-10-23T00:05:38.760Z,97672.00
2023-10-23T00:05:48.691Z,97672.00
2023-10-23T00:05:58.717Z,97670.00
2023-10-23T00:06:08.756Z,97674.00
2023-10-23T00:06:18.842Z,97672.00
2023-10-23T00:06:28.894Z,97672.00
2023-10-23T00:06:38.924Z,97672.00
2023-10-23T00:06:49.003Z,97670.00
2023-10-23T00:06:59.052Z,97670.00
2023-10-23T00:07:09.057Z,97670.00
2023-10-23T00:07:19.318Z,97670.00
2023-10-23T00:07:29.321Z,97672.00
2023-10-23T00:07:39.343Z,97668.00
2023-10-23T00:07:49.350Z,97670.00
2023-10-23T00:07:59.365Z,97672.00
2023-10-23T00:08:09.375Z,97672.00
2023-10-23T00:08:19.374Z,97670.00
2023-10-23T00:08:29.394Z,97670.00
2023-10-23T00:08:39.409Z,97670.00
2023-10-23T00:08:49.400Z,97670.00
2023-10-23T00:08:59.412Z,97670.00
2023-10-23T00:09:09.438Z,97670.00
2023-10-23T00:09:19.452Z,97672.00
2023-10-23T00:09:29.550Z,97670.00
2023-10-23T00:09:39.611Z,97670.00
2023-10-23T00:09:49.698Z,97670.00
2023-10-23T00:09:59.690Z,97672.00
2023-10-23T00:10:09.967Z,97670.00
2023-10-23T00:10:19.974Z,97672.00
2023-10-23T00:10:29.970Z,97672.00
2023-10-23T00:10:39.966Z,97674.00
2023-10-23T00:10:49.985Z,97672.00
2023-10-23T00:10:59.988Z,97672.00
2023-10-23T00:11:09.989Z,97672.00
2023-10-23T00:11:20.000Z,97672.00
2023-10-23T00:11:30.002Z,97672.00
2023-10-23T00:11:40.015Z,97672.00
2023-10-23T00:11:50.041Z,97672.00
2023-10-23T00:12:00.045Z,97672.00
2023-10-23T00:12:10.070Z,97672.00
2023-10-23T00:12:20.080Z,97672.00
2023-10-23T00:12:30.155Z,97672.00
2023-10-23T00:12:40.197Z,97672.00
2023-10-23T00:12:50.245Z,97672.00
2023-10-23T00:13:00.255Z,97672.00
2023-10-23T00:13:10.322Z,97672.00
2023-10-23T00:13:20.329Z,97672.00
2023-10-23T00:13:30.340Z,97670.00
2023-10-23T00:13:40.343Z,97672.00
2023-10-23T00:13:50.352Z,97672.00
2023-10-23T00:14:00.374Z,97672.00
2023-10-23T00:14:10.376Z,97672.00
2023-10-23T00:14:20.401Z,97674.00
2023-10-23T00:14:30.396Z,97672.00
2023-10-23T00:14:40.420Z,97676.00
2023-10-23T00:14:50.438Z,97672.00
2023-10-23T00:15:00.442Z,97674.00
2023-10-23T00:15:10.437Z,97676.00
2023-10-23T00:15:20.510Z,97674.00
2023-10-23T00:15:30.558Z,97676.00
2023-10-23T00:15:40.665Z,97674.00
2023-10-23T00:15:50.754Z,97674.00
2023-10-23T00:16:00.777Z,97677.00
2023-10-23T00:16:10.807Z,97676.00
2023-10-23T00:16:20.871Z,97676.00
2023-10-23T00:16:31.171Z,97677.00
2023-10-23T00:16:41.265Z,97677.00
2023-10-23T00:16:51.356Z,97677.00
2023-10-23T00:17:01.332Z,97677.00
2023-10-23T00:17:11.343Z,97679.00
2023-10-23T00:17:21.344Z,97677.00
2023-10-23T00:17:31.361Z,97681.00
2023-10-23T00:17:41.377Z,97679.00
2023-10-23T00:17:51.447Z,97679.00
2023-10-23T00:18:01.460Z,97681.00
2023-10-23T00:18:11.475Z,97681.00
2023-10-23T00:18:21.549Z,97681.00
2023-10-23T00:18:31.622Z,97679.00
2023-10-23T00:18:41.649Z,97679.00
2023-10-23T00:18:51.797Z,97681.00
2023-10-23T00:19:01.809Z,97679.00
2023-10-23T00:19:12.015Z,97679.00
2023-10-23T00:19:22.039Z,97679.00
2023-10-23T00:19:32.038Z,97681.00
2023-10-23T00:19:42.065Z,97679.00
2023-10-23T00:19:52.065Z,97681.00
2023-10-23T00:20:02.209Z,97681.00
2023-10-23T00:20:12.247Z,97679.00
2023-10-23T00:20:22.283Z,97679.00
2023-10-23T00:20:32.295Z,97681.00
2023-10-23T00:20:42.301Z,97679.00
2023-10-23T00:20:52.310Z,97679.00
2023-10-23T00:21:02.313Z,97679.00
2023-10-23T00:21:12.322Z,97679.00
2023-10-23T00:21:22.391Z,97679.00
2023-10-23T00:21:32.440Z,97679.00
2023-10-23T00:21:42.474Z,97677.00
2023-10-23T00:21:52.516Z,97679.00
2023-10-23T00:22:02.536Z,97677.00
2023-10-23T00:22:12.547Z,97679.00
2023-10-23T00:22:22.562Z,97679.00
2023-10-23T00:22:32.578Z,97677.00
2023-10-23T00:22:42.562Z,97677.00
2023-10-23T00:22:52.572Z,97679.00
2023-10-23T00:23:02.590Z,97679.00
2023-10-23T00:23:12.629Z,97677.00
2023-10-23T00:23:22.631Z,97677.00
2023-10-23T00:23:32.645Z,97679.00
2023-10-23T00:23:42.645Z,97681.00
2023-10-23T00:23:52.698Z,97679.00
2023-10-23T00:24:02.697Z,97677.00
2023-10-23T00:24:12.696Z,97677.00
2023-10-23T00:24:22.773Z,97679.00
2023-10-23T00:24:33.137Z,97677.00
2023-10-23T00:24:43.189Z,97681.00
2023-10-23T00:24:53.251Z,97681.00
2023-10-23T00:25:03.287Z,97679.00
2023-10-23T00:25:13.294Z,97677.00
2023-10-23T00:25:23.319Z,97677.00
2023-10-23T00:25:33.311Z,97681.00
2023-10-23T00:25:43.323Z,97679.00
2023-10-23T00:25:53.353Z,97679.00
2023-10-23T00:26:03.410Z,97679.00
2023-10-23T00:26:13.398Z,97679.00
2023-10-23T00:26:23.417Z,97681.00
2023-10-23T00:26:33.421Z,97679.00
2023-10-23T00:26:43.435Z,97683.00
2023-10-23T00:26:53.452Z,97681.00
2023-10-23T00:27:03.457Z,97681.00
2023-10-23T00:27:13.492Z,97681.00
2023-10-23T00:27:23.518Z,97681.00
2023-10-23T00:27:33.535Z,97681.00
2023-10-23T00:27:43.645Z,97681.00
2023-10-23T00:27:53.719Z,97681.00
2023-10-23T00:28:03.781Z,97679.00
2023-10-23T00:28:13.825Z,97683.00
2023-10-23T00:28:23.803Z,97681.00
2023-10-23T00:28:33.934Z,97681.00
2023-10-23T00:28:44.057Z,97683.00
2023-10-23T00:28:54.060Z,97681.00
2023-10-23T00:29:04.344Z,97683.00
2023-10-23T00:29:14.360Z,97681.00
2023-10-23T00:29:24.363Z,97683.00
2023-10-23T00:29:34.376Z,97683.00
2023-10-23T00:29:44.384Z,97681.00
2023-10-23T00:29:54.392Z,97685.00
2023-10-23T00:30:04.408Z,97683.00
2023-10-23T00:30:14.446Z,97681.00
2023-10-23T00:30:24.450Z,97685.00
2023-10-23T00:30:34.482Z,97681.00
2023-10-23T00:30:44.583Z,97683.00
2023-10-23T00:30:54.730Z,97681.00
2023-10-23T00:31:04.686Z,97683.00
2023-10-23T00:31:14.745Z,97683.00
2023-10-23T00:31:24.797Z,97683.00
2023-10-23T00:31:34.859Z,97683.00
2023-10-23T00:31:44.881Z,97681.00
2023-10-23T00:31:54.962Z,97679.00
2023-10-23T00:32:04.971Z,97683.00
2023-10-23T00:32:15.012Z,97683.00
2023-10-23T00:32:25.076Z,97677.00
2023-10-23T00:32:35.159Z,97679.00
2023-10-23T00:32:45.296Z,97679.00
2023-10-23T00:32:55.439Z,97679.00
2023-10-23T00:33:05.603Z,97679.00
2023-10-23T00:33:15.760Z,97679.00
2023-10-23T00:33:25.846Z,97676.00
2023-10-23T00:33:36.006Z,97676.00
2023-10-23T00:33:46.111Z,97677.00
2023-10-23T00:33:56.046Z,97676.00
2023-10-23T00:34:06.045Z,97677.00
2023-10-23T00:34:16.077Z,97677.00
2023-10-23T00:34:26.168Z,97676.00
2023-10-23T00:34:36.408Z,97676.00
2023-10-23T00:34:46.284Z,97676.00
2023-10-23T00:34:56.312Z,97676.00
2023-10-23T00:35:06.307Z,97672.00
2023-10-23T00:35:16.580Z,97676.00
2023-10-23T00:35:26.576Z,97672.00
2023-10-23T00:35:36.574Z,97676.00
2023-10-23T00:35:46.577Z,97672.00
2023-10-23T00:35:56.584Z,97672.00
2023-10-23T00:36:06.597Z,97672.00
2023-10-23T00:36:16.623Z,97674.00
2023-10-23T00:36:26.633Z,97672.00
2023-10-23T00:36:36.806Z,97672.00
2023-10-23T00:36:46.693Z,97674.00
2023-10-23T00:36:56.746Z,97674.00
2023-10-23T00:37:06.745Z,97672.00
2023-10-23T00:37:16.749Z,97674.00
2023-10-23T00:37:26.756Z,97670.00
2023-10-23T00:37:36.793Z,97672.00
2023-10-23T00:37:46.803Z,97674.00
2023-10-23T00:37:56.800Z,97672.00
2023-10-23T00:38:06.810Z,97672.00
2023-10-23T00:38:16.824Z,97674.00
2023-10-23T00:38:26.822Z,97674.00
2023-10-23T00:38:36.823Z,97672.00
2023-10-23T00:38:46.837Z,97672.00
2023-10-23T00:38:56.843Z,97672.00
2023-10-23T00:39:06.844Z,97672.00
2023-10-23T00:39:16.868Z,97672.00
2023-10-23T00:39:26.945Z,97674.00
2023-10-23T00:39:36.963Z,97672.00
2023-10-23T00:39:47.000Z,97674.00
2023-10-23T00:39:57.101Z,97674.00
2023-10-23T00:40:07.103Z,97672.00
2023-10-23T00:40:17.115Z,97672.00
2023-10-23T00:40:27.123Z,97672.00
2023-10-23T00:40:37.132Z,97674.00
2023-10-23T00:40:47.147Z,97674.00
2023-10-23T00:40:57.155Z,97672.00
2023-10-23T00:41:07.161Z,97668.00
2023-10-23T00:41:17.192Z,97674.00
2023-10-23T00:41:27.188Z,97668.00
2023-10-23T00:41:37.190Z,97670.00
2023-10-23T00:41:47.218Z,97670.00
2023-10-23T00:41:57.222Z,97670.00
2023-10-23T00:42:07.246Z,97670.00
2023-10-23T00:42:17.274Z,97672.00
2023-10-23T00:42:27.348Z,97670.00
2023-10-23T00:42:37.373Z,97672.00
2023-10-23T00:42:47.416Z,97670.00
2023-10-23T00:42:57.459Z,97670.00
2023-10-23T00:43:07.478Z,97670.00
2023-10-23T00:43:17.526Z,97670.00
2023-10-23T00:43:27.531Z,97672.00
2023-10-23T00:43:37.542Z,97672.00
2023-10-23T00:43:47.539Z,97672.00
2023-10-23T00:43:57.546Z,97670.00
2023-10-23T00:44:07.555Z,97672.00
2023-10-23T00:44:17.577Z,97672.00
2023-10-23T00:44:27.588Z,97672.00
2023-10-23T00:44:37.842Z,97672.00
2023-10-23T00:44:47.660Z,97672.00
2023-10-23T00:44:57.665Z,97674.00
2023-10-23T00:45:07.672Z,97674.00
2023-10-23T00:45:17.707Z,97674.00
2023-10-23T00:45:27.745Z,97672.00
2023-10-23T00:45:37.781Z,97672.00
2023-10-23T00:45:47.866Z,97674.00
2023-10-23T00:45:57.874Z,97674.00
2023-10-23T00:46:07.882Z,97676.00
2023-10-23T00:46:17.941Z,97674.00
2023-10-23T00:46:27.976Z,97676.00
2023-10-23T00:46:37.987Z,97672.00
2023-10-23T00:46:48.012Z,97677.00
2023-10-23T00:46:58.071Z,97672.00
2023-10-23T00:47:08.094Z,97676.00
2023-10-23T00:47:18.095Z,97676.00
2023-10-23T00:47:28.148Z,97676.00
2023-10-23T00:47:38.245Z,97676.00
2023-10-23T00:47:48.338Z,97677.00
2023-10-23T00:47:58.402Z,97674.00
2023-10-23T00:48:08.435Z,97674.00
2023-10-23T00:48:18.479Z,97676.00
2023-10-23T00:48:28.585Z,97676.00
2023-10-23T00:48:38.842Z,97676.00
2023-10-23T00:48:48.890Z,97677.00
2023-10-23T00:48:58.895Z,97674.00
2023-10-23T00:49:09.164Z,97677.00
2023-10-23T00:49:19.163Z,97674.00
2023-10-23T00:49:29.167Z,97679.00
2023-10-23T00:49:39.190Z,97677.00
2023-10-23T00:49:49.314Z,97677.00
2023-10-23T00:49:59.323Z,97677.00
2023-10-23T00:50:09.321Z,97677.00
2023-10-23T00:50:19.328Z,97679.00
2023-10-23T00:50:29.342Z,97679.00
2023-10-23T00:50:39.381Z,97679.00
2023-10-23T00:50:49.673Z,97679.00
2023-10-23T00:50:59.758Z,97677.00
2023-10-23T00:51:09.843Z,97676.00
2023-10-23T00:51:19.894Z,97677.00
2023-10-23T00:51:29.978Z,97677.00
2023-10-23T00:51:40.021Z,97677.00
2023-10-23T00:51:50.095Z,97677.00
2023-10-23T00:52:00.231Z,97677.00
2023-10-23T00:52:10.223Z,97679.00
2023-10-23T00:52:20.232Z,97679.00
2023-10-23T00:52:30.605Z,97676.00
2023-10-23T00:52:40.629Z,97677.00
2023-10-23T00:52:50.622Z,97677.00
2023-10-23T00:53:00.642Z,97677.00
2023-10-23T00:53:10.657Z,97677.00
2023-10-23T00:53:20.655Z,97676.00
2023-10-23T00:53:30.673Z,97677.00
2023-10-23T00:53:40.680Z,97676.00
2023-10-23T00:53:50.685Z,97679.00
2023-10-23T00:54:00.684Z,97676.00
2023-10-23T00:54:10.704Z,97677.00
2023-10-23T00:54:20.819Z,97677.00
2023-10-23T00:54:30.857Z,97677.00
2023-10-23T00:54:41.189Z,97677.00
2023-10-23T00:54:51.137Z,97676.00
2023-10-23T00:55:01.219Z,97676.00
2023-10-23T00:55:11.175Z,97676.00
2023-10-23T00:55:21.171Z,97676.00
2023-10-23T00:55:31.194Z,97672.00
2023-10-23T00:55:41.192Z,97677.00
2023-10-23T00:55:51.190Z,97677.00
2023-10-23T00:56:01.317Z,97676.00
2023-10-23T00:56:11.326Z,97676.00
2023-10-23T00:56:21.332Z,97676.00
2023-10-23T00:56:31.610Z,97674.00
2023-10-23T00:56:41.628Z,97674.00
2023-10-23T00:56:51.654Z,97674.00
2023-10-23T00:57:01.647Z,97676.00
2023-10-23T00:57:11.652Z,97674.00
2023-10-23T00:57:21.704Z,97672.00
2023-10-23T00:57:31.703Z,97674.00
2023-10-23T00:57:41.778Z,97674.00
2023-10-23T00:57:51.822Z,97672.00
2023-10-23T00:58:01.812Z,97674.00
2023-10-23T00:58:11.816Z,97668.00
2023-10-23T00:58:21.875Z,97668.00
2023-10-23T00:58:31.863Z,97668.00
2023-10-23T00:58:41.864Z,97668.00
2023-10-23T00:58:51.882Z,97668.00
2023-10-23T00:59:01.894Z,97668.00
2023-10-23T00:59:11.894Z,97668.00
2023-10-23T00:59:21.911Z,97670.00
2023-10-23T00:59:31.926Z,97666.00
2023-10-23T00:59:41.930Z,97664.00
2023-10-23T00:59:51.937Z,97664.00
2023-10-23T01:00:01.963Z,97664.00
2023-10-23T01:00:11.958Z,97664.00
2023-10-23T01:00:22.003Z,97668.00
2023-10-23T01:00:32.047Z,97666.00
2023-10-23T01:00:42.112Z,97664.00
2023-10-23T01:00:52.258Z,97662.00
2023-10-23T01:01:02.227Z,97664.00
2023-10-23T01:01:12.354Z,97662.00
2023-10-23T01:01:22.315Z,97662.00
2023-10-23T01:01:32.376Z,97664.00
2023-10-23T01:01:42.355Z,97664.00
2023-10-23T01:01:52.440Z,97660.00
2023-10-23T01:02:02.456Z,97664.00
2023-10-23T01:02:12.485Z,97664.00
2023-10-23T01:02:22.546Z,97660.00
2023-10-23T01:02:32.619Z,97660.00
2023-10-23T01:02:42.633Z,97662.00
2023-10-23T01:02:52.751Z,97662.00
2023-10-23T01:03:02.746Z,97662.00
2023-10-23T01:03:12.799Z,97660.00
2023-10-23T01:03:22.933Z,97664.00
2023-10-23T01:03:33.042Z,97658.00
2023-10-23T01:03:43.051Z,97662.00
2023-10-23T01:03:53.146Z,97660.00
2023-10-23T01:04:03.467Z,97660.00
2023-10-23T01:04:13.473Z,97660.00
2023-10-23T01:04:23.484Z,97660.00
2023-10-23T01:04:33.490Z,97660.00
2023-10-23T01:04:43.512Z,97662.00
2023-10-23T01:04:53.515Z,97662.00
2023-10-23T01:05:03.636Z,97662.00
2023-10-23T01:05:13.650Z,97662.00
2023-10-23T01:05:23.665Z,97662.00
2023-10-23T01:05:33.678Z,97662.00
2023-10-23T01:05:43.934Z,97660.00
2023-10-23T01:05:53.940Z,97662.00
2023-10-23T01:06:03.947Z,97662.00
2023-10-23T01:06:14.426Z,97662.00
2023-10-23T01:06:24.334Z,97664.00
2023-10-23T01:06:34.361Z,97666.00
2023-10-23T01:06:44.431Z,97662.00
2023-10-23T01:06:54.732Z,97664.00
2023-10-23T01:07:04.780Z,97664.00
2023-10-23T01:07:14.792Z,97666.00
2023-10-23T01:07:24.815Z,97666.00
2023-10-23T01:07:34.820Z,97664.00
2023-10-23T01:07:44.829Z,97662.00
2023-10-23T01:07:54.837Z,97662.00
2023-10-23T01:08:04.848Z,97662.00
2023-10-23T01:08:14.848Z,97666.00
2023-10-23T01:08:24.856Z,97664.00
2023-10-23T01:08:34.873Z,97666.00
2023-10-23T01:08:44.893Z,97664.00
2023-10-23T01:08:54.890Z,97666.00
2023-10-23T01:09:04.894Z,97666.00
2023-10-23T01:09:14.978Z,97666.00
2023-10-23T01:09:25.043Z,97666.00
2023-10-23T01:09:35.085Z,97664.00
2023-10-23T01:09:45.136Z,97666.00
2023-10-23T01:09:55.203Z,97670.00
2023-10-23T01:10:05.272Z,97666.00
2023-10-23T01:10:15.280Z,97666.00
2023-10-23T01:10:25.292Z,97666.00
2023-10-23T01:10:35.287Z,97668.00
2023-10-23T01:10:45.307Z,97666.00
2023-10-23T01:10:55.589Z,97668.00
2023-10-23T01:11:05.657Z,97670.00
2023-10-23T01:11:15.800Z,97670.00
2023-10-23T01:11:26.019Z,97670.00
2023-10-23T01:11:36.108Z,97670.00
2023-10-23T01:11:46.119Z,97670.00
2023-10-23T01:11:56.378Z,97670.00
2023-10-23T01:12:06.387Z,97670.00
2023-10-23T01:12:16.445Z,97670.00
2023-10-23T01:12:26.476Z,97670.00
2023-10-23T01:12:36.487Z,97670.00
2023-10-23T01:12:46.536Z,97670.00
2023-10-23T01:12:56.620Z,97670.00
2023-10-23T01:13:06.638Z,97672.00
2023-10-23T01:13:16.649Z,97672.00
2023-10-23T01:13:26.681Z,97672.00
2023-10-23T01:13:36.685Z,97672.00
2023-10-23T01:13:46.695Z,97672.00
2023-10-23T01:13:56.701Z,97672.00
2023-10-23T01:14:06.782Z,97674.00
2023-10-23T01:14:16.833Z,97674.00
2023-10-23T01:14:26.833Z,97676.00
2023-10-23T01:14:37.075Z,97676.00
2023-10-23T01:14:47.212Z,97674.00
2023-10-23T01:14:57.210Z,97676.00
2023-10-23T01:15:07.403Z,97677.00
2023-10-23T01:15:17.666Z,97674.00
2023-10-23T01:15:27.729Z,97676.00
2023-10-23T01:15:37.790Z,97677.00
2023-10-23T01:15:47.902Z,97676.00
2023-10-23T01:15:57.827Z,97676.00
2023-10-23T01:16:07.830Z,97676.00
2023-10-23T01:16:17.926Z,97676.00
2023-10-23T01:16:28.089Z,97676.00
2023-10-23T01:16:38.191Z,97676.00
2023-10-23T01:16:48.368Z,97677.00
2023-10-23T01:16:58.545Z,97670.00
2023-10-23T01:17:08.620Z,97672.00
2023-10-23T01:17:18.637Z,97674.00
2023-10-23T01:17:28.949Z,97670.00
2023-10-23T01:17:38.966Z,97672.00
2023-10-23T01:17:48.982Z,97672.00
2023-10-23T01:17:59.059Z,97674.00
2023-10-23T01:18:09.083Z,97674.00
2023-10-23T01:18:19.101Z,97674.00
2023-10-23T01:18:29.127Z,97672.00
2023-10-23T01:18:39.195Z,97674.00
2023-10-23T01:18:49.281Z,97674.00
2023-10-23T01:18:59.316Z,97676.00
2023-10-23T01:19:09.576Z,97674.00
2023-10-23T01:19:19.700Z,97672.00
2023-10-23T01:19:29.705Z,97672.00
2023-10-23T01:19:39.975Z,97670.00
2023-10-23T01:19:49.988Z,97672.00
2023-10-23T01:19:59.996Z,97672.00
2023-10-23T01:20:10.000Z,97672.00
2023-10-23T01:20:20.017Z,97672.00
2023-10-23T01:20:30.021Z,97672.00
2023-10-23T01:20:40.058Z,97672.00
2023-10-23T01:20:50.069Z,97672.00
2023-10-23T01:21:00.078Z,97670.00
2023-10-23T01:21:10.078Z,97672.00
2023-10-23T01:21:20.142Z,97670.00
2023-10-23T01:21:30.229Z,97670.00
2023-10-23T01:21:40.292Z,97668.00
2023-10-23T01:21:50.362Z,97670.00
2023-10-23T01:22:00.372Z,97670.00
2023-10-23T01:22:10.389Z,97670.00
2023-10-23T01:22:20.390Z,97670.00
2023-10-23T01:22:30.407Z,97668.00
2023-10-23T01:22:40.414Z,97670.00
2023-10-23T01:22:50.420Z,97670.00
2023-10-23T01:23:00.433Z,97668.00
2023-10-23T01:23:10.455Z,97668.00
2023-10-23T01:23:20.458Z,97666.00
2023-10-23T01:23:30.462Z,97668.00
2023-10-23T01:23:40.472Z,97668.00
2023-10-23T01:23:50.494Z,97666.00
2023-10-23T01:24:00.498Z,97668.00
2023-10-23T01:24:10.506Z,97668.00
2023-10-23T01:24:20.526Z,97664.00
2023-10-23T01:24:30.567Z,97664.00
2023-10-23T01:24:40.617Z,97666.00
2023-10-23T01:24:50.637Z,97666.00
2023-10-23T01:25:00.717Z,97666.00
2023-10-23T01:25:10.720Z,97662.00
2023-10-23T01:25:20.725Z,97664.00
2023-10-23T01:25:30.732Z,97666.00
2023-10-23T01:25:40.752Z,97662.00
2023-10-23T01:25:50.776Z,97664.00
2023-10-23T01:26:00.785Z,97664.00
2023-10-23T01:26:10.789Z,97662.00
2023-10-23T01:26:20.792Z,97664.00
2023-10-23T01:26:30.802Z,97664.00
2023-10-23T01:26:40.813Z,97666.00
2023-10-23T01:26:50.824Z,97666.00
2023-10-23T01:27:00.819Z,97666.00
2023-10-23T01:27:10.833Z,97666.00
2023-10-23T01:27:20.852Z,97666.00
2023-10-23T01:27:30.870Z,97668.00
2023-10-23T01:27:40.911Z,97668.00
2023-10-23T01:27:50.993Z,97668.00
2023-10-23T01:28:00.997Z,97666.00
2023-10-23T01:28:11.034Z,97668.00
2023-10-23T01:28:21.054Z,97668.00
2023-10-23T01:28:31.078Z,97668.00
2023-10-23T01:28:41.066Z,97668.00
2023-10-23T01:28:51.077Z,97668.00
2023-10-23T01:29:01.083Z,97668.00
2023-10-23T01:29:11.085Z,97666.00
2023-10-23T01:29:21.110Z,97668.00
2023-10-23T01:29:31.092Z,97666.00
2023-10-23T01:29:41.100Z,97666.00
2023-10-23T01:29:51.103Z,97668.00
2023-10-23T01:30:01.128Z,97666.00
2023-10-23T01:30:11.132Z,97666.00
2023-10-23T01:30:21.177Z,97668.00
2023-10-23T01:30:31.227Z,97666.00
2023-10-23T01:30:41.300Z,97664.00
2023-10-23T01:30:51.267Z,97666.00
2023-10-23T01:31:01.441Z,97666.00
2023-10-23T01:31:11.456Z,97666.00
2023-10-23T01:31:21.412Z,97664.00
2023-10-23T01:31:31.500Z,97666.00
2023-10-23T01:31:41.555Z,97664.00
2023-10-23T01:31:51.847Z,97664.00
2023-10-23T01:32:01.830Z,97662.00
2023-10-23T01:32:11.832Z,97664.00
2023-10-23T01:32:21.837Z,97662.00
2023-10-23T01:32:31.856Z,97662.00
2023-10-23T01:32:41.873Z,97664.00
2023-10-23T01:32:51.911Z,97662.00
2023-10-23T01:33:02.027Z,97662.00
2023-10-23T01:33:12.035Z,97662.00
2023-10-23T01:33:22.067Z,97662.00
2023-10-23T01:33:32.134Z,97662.00
2023-10-23T01:33:42.312Z,97662.00
2023-10-23T01:33:52.322Z,97660.00
2023-10-23T01:34:02.347Z,97662.00
2023-10-23T01:34:12.380Z,97658.00
2023-10-23T01:34:22.448Z,97660.00
2023-10-23T01:34:32.462Z,97662.00
2023-10-23T01:34:42.720Z,97660.00
2023-10-23T01:34:52.725Z,97660.00
2023-10-23T01:35:02.723Z,97660.00
2023-10-23T01:35:12.729Z,97658.00
2023-10-23T01:35:22.749Z,97660.00
2023-10-23T01:35:32.742Z,97660.00
2023-10-23T01:35:42.740Z,97658.00
2023-10-23T01:35:52.749Z,97660.00
2023-10-23T01:36:02.750Z,97660.00
2023-10-23T01:36:12.757Z,97660.00
2023-10-23T01:36:22.790Z,97660.00
2023-10-23T01:36:32.863Z,97660.00
2023-10-23T01:36:42.914Z,97656.00
2023-10-23T01:36:52.946Z,97658.00
2023-10-23T01:37:02.946Z,97660.00
2023-10-23T01:37:12.946Z,97660.00
2023-10-23T01:37:22.948Z,97658.00
2023-10-23T01:37:32.959Z,97658.00
2023-10-23T01:37:42.973Z,97658.00
2023-10-23T01:37:52.982Z,97658.00
2023-10-23T01:38:02.998Z,97660.00
2023-10-23T01:38:13.001Z,97656.00
2023-10-23T01:38:23.007Z,97658.00
2023-10-23T01:38:33.009Z,97660.00
2023-10-23T01:38:43.103Z,97654.00
2023-10-23T01:38:53.114Z,97658.00
2023-10-23T01:39:03.121Z,97658.00
2023-10-23T01:39:13.132Z,97658.00
2023-10-23T01:39:23.187Z,97658.00
2023-10-23T01:39:33.277Z,97658.00
2023-10-23T01:39:43.333Z,97654.00
2023-10-23T01:39:53.686Z,97658.00
2023-10-23T01:40:03.681Z,97656.00
2023-10-23T01:40:13.694Z,97654.00
2023-10-23T01:40:23.726Z,97656.00
2023-10-23T01:40:33.719Z,97656.00
2023-10-23T01:40:43.764Z,97656.00
2023-10-23T01:40:53.754Z,97656.00
2023-10-23T01:41:03.758Z,97654.00
2023-10-23T01:41:13.764Z,97654.00
2023-10-23T01:41:23.765Z,97656.00
2023-10-23T01:41:33.794Z,97656.00
2023-10-23T01:41:43.821Z,97654.00
2023-10-23T01:41:53.851Z,97654.00
2023-10-23T01:42:03.847Z,97654.00
2023-10-23T01:42:13.857Z,97654.00
2023-10-23T01:42:23.939Z,97654.00
2023-10-23T01:42:34.026Z,97654.00
2023-10-23T01:42:44.191Z,97652.00
2023-10-23T01:42:54.160Z,97656.00
2023-10-23T01:43:04.196Z,97652.00
2023-10-23T01:43:14.204Z,97654.00
2023-10-23T01:43:24.463Z,97654.00
2023-10-23T01:43:34.493Z,97656.00
2023-10-23T01:43:44.519Z,97654.00
2023-10-23T01:43:54.520Z,97652.00
2023-10-23T01:44:04.654Z,97652.00
2023-10-23T01:44:14.659Z,97654.00
2023-10-23T01:44:24.658Z,97654.00
2023-10-23T01:44:34.677Z,97656.00
2023-10-23T01:44:44.681Z,97654.00
2023-10-23T01:44:54.692Z,97654.00
2023-10-23T01:45:04.962Z,97652.00
2023-10-23T01:45:14.963Z,97654.00
2023-10-23T01:45:25.042Z,97658.00
2023-10-23T01:45:35.348Z,97654.00
2023-10-23T01:45:45.366Z,97654.00
2023-10-23T01:45:55.412Z,97656.00
2023-10-23T01:46:05.450Z,97656.00
2023-10-23T01:46:15.486Z,97656.00
2023-10-23T01:46:25.641Z,97656.00
2023-10-23T01:46:35.718Z,97652.00
2023-10-23T01:46:45.819Z,97658.00
2023-10-23T01:46:55.808Z,97652.00
2023-10-23T01:47:05.809Z,97650.00
2023-10-23T01:47:15.817Z,97658.00
2023-10-23T01:47:25.834Z,97652.00
2023-10-23T01:47:35.851Z,97656.00
2023-10-23T01:47:45.938Z,97652.00
2023-10-23T01:47:55.973Z,97652.00
2023-10-23T01:48:06.049Z,97652.00
2023-10-23T01:48:16.165Z,97650.00
2023-10-23T01:48:26.482Z,97652.00
2023-10-23T01:48:36.499Z,97650.00
2023-10-23T01:48:46.527Z,97650.00
2023-10-23T01:48:56.576Z,97652.00
2023-10-23T01:49:06.593Z,97650.00
2023-10-23T01:49:16.595Z,97650.00
2023-10-23T01:49:26.597Z,97650.00
2023-10-23T01:49:36.619Z,97650.00
2023-10-23T01:49:46.626Z,97650.00
2023-10-23T01:49:56.634Z,97652.00
2023-10-23T01:50:06.652Z,97650.00
2023-10-23T01:50:16.653Z,97650.00
2023-10-23T01:50:26.660Z,97650.00
2023-10-23T01:50:37.864Z,97650.00
2023-10-23T01:50:46.723Z,97650.00
2023-10-23T01:50:56.731Z,97648.00
2023-10-23T01:51:06.743Z,97648.00
2023-10-23T01:51:16.753Z,97650.00
2023-10-23T01:51:26.789Z,97650.00
2023-10-23T01:51:36.850Z,97650.00
2023-10-23T01:51:46.995Z,97652.00
2023-10-23T01:51:57.050Z,97650.00
2023-10-23T01:52:07.072Z,97650.00
2023-10-23T01:52:17.068Z,97650.00
2023-10-23T01:52:27.086Z,97650.00
2023-10-23T01:52:37.084Z,97652.00
2023-10-23T01:52:47.096Z,97650.00
2023-10-23T01:52:57.124Z,97650.00
2023-10-23T01:53:07.117Z,97652.00
2023-10-23T01:53:17.123Z,97652.00
2023-10-23T01:53:27.120Z,97652.00
2023-10-23T01:53:37.134Z,97650.00
2023-10-23T01:53:47.250Z,97652.00
2023-10-23T01:53:57.263Z,97650.00
2023-10-23T01:54:07.280Z,97650.00
2023-10-23T01:54:17.289Z,97652.00
2023-10-23T01:54:27.346Z,97650.00
2023-10-23T01:54:37.772Z,97650.00
2023-10-23T01:54:47.656Z,97650.00
2023-10-23T01:54:57.727Z,97650.00
2023-10-23T01:55:07.738Z,97648.00
2023-10-23T01:55:17.749Z,97650.00
2023-10-23T01:55:27.766Z,97650.00
2023-10-23T01:55:37.762Z,97648.00
2023-10-23T01:55:47.781Z,97652.00
2023-10-23T01:55:57.788Z,97650.00
2023-10-23T01:56:07.821Z,97650.00
2023-10-23T01:56:17.803Z,97646.00
2023-10-23T01:56:27.828Z,97646.00
2023-10-23T01:56:37.826Z,97648.00
2023-10-23T01:56:47.834Z,97646.00
2023-10-23T01:56:57.856Z,97644.00
2023-10-23T01:57:07.860Z,97644.00
2023-10-23T01:57:17.894Z,97646.00
2023-10-23T01:57:27.929Z,97646.00
2023-10-23T01:57:37.963Z,97644.00
2023-10-23T01:57:48.057Z,97644.00
2023-10-23T01:57:58.109Z,97646.00